createdAt,value
2019-05-26T00:01:47.507Z,8.90
2019-05-26T00:04:20.023Z,9.33
2019-05-26T00:06:52.732Z,9.50
2019-05-26T00:09:27.976Z,9.60
2019-05-26T00:12:02.495Z,10.20
2019-05-26T00:14:35.005Z,9.87
2019-05-26T00:17:07.561Z,10.27
2019-05-26T00:19:41.696Z,10.23
2019-05-26T00:22:15.205Z,8.77
2019-05-26T00:24:47.779Z,8.67
2019-05-26T00:27:21.384Z,9.30
2019-05-26T00:29:54.602Z,8.27
2019-05-26T00:32:27.099Z,9.27
2019-05-26T00:35:01.125Z,10.32
2019-05-26T00:37:48.260Z,8.90
2019-05-26T00:40:27.205Z,7.73
2019-05-26T00:43:02.642Z,8.57
2019-05-26T00:45:38.030Z,11.20
2019-05-26T00:48:10.763Z,10.80
2019-05-26T00:50:43.693Z,10.33
2019-05-26T00:53:16.367Z,10.10
2019-05-26T00:55:49.368Z,9.20
2019-05-26T00:58:22.148Z,9.30
2019-05-26T01:00:55.326Z,10.37
2019-05-26T01:03:27.882Z,9.00
2019-05-26T01:06:00.507Z,8.53
2019-05-26T01:08:33.282Z,9.27
2019-05-26T01:11:05.934Z,11.80
2019-05-26T01:13:39.389Z,12.57
2019-05-26T01:16:12.043Z,10.90
2019-05-26T01:18:47.213Z,13.40
2019-05-26T01:21:24.720Z,14.20
2019-05-26T01:23:59.190Z,12.55
2019-05-26T01:26:31.768Z,9.90
2019-05-26T01:29:05.951Z,10.00
2019-05-26T01:31:38.574Z,10.50
2019-05-26T01:34:11.139Z,11.67
2019-05-26T01:36:48.755Z,11.33
2019-05-26T01:39:24.461Z,10.00
2019-05-26T01:42:02.039Z,8.57
2019-05-26T01:44:35.745Z,9.30
2019-05-26T01:47:08.350Z,9.60
2019-05-26T01:49:41.102Z,12.27
2019-05-26T01:52:13.726Z,13.60
2019-05-26T01:54:48.225Z,12.33
2019-05-26T01:57:21.823Z,13.10
2019-05-26T01:59:54.487Z,14.57
2019-05-26T02:02:27.140Z,20.53
2019-05-26T02:04:59.798Z,18.93
2019-05-26T02:07:33.856Z,13.43
2019-05-26T02:10:07.762Z,16.30
2019-05-26T02:12:41.674Z,16.57
2019-05-26T02:15:20.583Z,15.60
2019-05-26T02:17:53.218Z,21.73
2019-05-26T02:20:26.474Z,17.13
2019-05-26T02:22:59.563Z,15.57
2019-05-26T02:25:32.738Z,17.03
2019-05-26T02:28:05.425Z,17.43
2019-05-26T02:30:38.230Z,15.73
2019-05-26T02:33:11.440Z,9.90
2019-05-26T02:35:44.617Z,16.90
2019-05-26T02:38:17.321Z,18.80
2019-05-26T02:40:49.996Z,20.93
2019-05-26T02:43:22.693Z,21.47
2019-05-26T02:45:55.238Z,22.13
2019-05-26T02:48:28.372Z,21.08
2019-05-26T02:51:02.422Z,21.30
2019-05-26T02:53:34.999Z,21.43
2019-05-26T02:56:07.821Z,20.40
2019-05-26T02:58:41.061Z,21.50
2019-05-26T03:01:13.772Z,21.20
2019-05-26T03:03:47.255Z,20.80
2019-05-26T03:06:22.124Z,20.20
2019-05-26T03:08:57.824Z,21.03
2019-05-26T03:11:33.730Z,24.00
2019-05-26T03:14:10.894Z,23.73
2019-05-26T03:16:46.664Z,23.67
2019-05-26T03:19:22.971Z,23.00
2019-05-26T03:21:59.584Z,23.47
2019-05-26T03:24:34.260Z,25.07
2019-05-26T03:27:07.023Z,25.60
2019-05-26T03:29:39.547Z,26.53
2019-05-26T03:32:12.177Z,25.70
2019-05-26T03:34:44.801Z,26.33
2019-05-26T03:37:17.497Z,28.03
2019-05-26T03:39:50.046Z,30.30
2019-05-26T03:42:22.714Z,28.70
2019-05-26T03:44:55.994Z,28.20
2019-05-26T03:47:30.020Z,29.97
2019-05-26T03:50:03.909Z,30.47
2019-05-26T03:52:36.708Z,31.33
2019-05-26T03:55:09.621Z,30.00
2019-05-26T03:57:42.261Z,31.17
2019-05-26T04:00:16.327Z,31.70
2019-05-26T04:02:49.077Z,33.03
2019-05-26T04:05:21.631Z,34.13
2019-05-26T04:07:54.390Z,34.70
2019-05-26T04:10:27.695Z,34.57
2019-05-26T04:13:00.926Z,34.93
2019-05-26T04:15:33.546Z,34.50
2019-05-26T04:18:08.889Z,36.13
2019-05-26T04:20:45.589Z,33.65
2019-05-26T04:23:19.586Z,30.83
2019-05-26T04:25:53.556Z,32.88
2019-05-26T04:28:26.460Z,29.33
2019-05-26T04:31:00.665Z,29.07
2019-05-26T04:33:33.296Z,29.87
2019-05-26T04:36:06.341Z,31.07
2019-05-26T04:38:39.032Z,32.93
2019-05-26T04:41:12.904Z,33.07
2019-05-26T04:43:45.665Z,35.58
2019-05-26T04:46:20.940Z,31.77
2019-05-26T04:49:02.691Z,33.80
2019-05-26T04:51:35.375Z,37.40
2019-05-26T04:54:07.934Z,33.47
2019-05-26T04:56:43.800Z,32.17
2019-05-26T04:59:18.907Z,31.80
2019-05-26T05:01:53.711Z,33.00
2019-05-26T05:04:28.206Z,33.23
2019-05-26T05:07:00.795Z,32.27
2019-05-26T05:09:33.506Z,35.15
2019-05-26T05:12:07.321Z,33.60
2019-05-26T05:14:40.633Z,32.63
2019-05-26T05:17:14.842Z,34.27
2019-05-26T05:19:48.338Z,32.90
2019-05-26T05:22:21.884Z,34.30
2019-05-26T05:24:55.622Z,34.47
2019-05-26T05:27:30.296Z,35.53
2019-05-26T05:30:07.354Z,35.30
2019-05-26T05:32:40.433Z,34.50
2019-05-26T05:35:14.806Z,38.47
2019-05-26T05:37:48.518Z,43.28
2019-05-26T05:40:21.198Z,38.83
2019-05-26T05:42:53.861Z,38.00
2019-05-26T05:45:27.486Z,38.97
2019-05-26T05:48:00.168Z,37.53
2019-05-26T05:54:00.787Z,39.40
2019-05-26T05:56:33.509Z,38.20
2019-05-26T05:59:06.128Z,36.03
2019-05-26T06:01:38.904Z,42.13
2019-05-26T06:04:13.390Z,35.57
2019-05-26T06:06:46.890Z,36.40
2019-05-26T06:09:23.364Z,34.43
2019-05-26T06:11:56.866Z,35.83
2019-05-26T06:14:29.900Z,34.80
2019-05-26T06:17:04.023Z,33.67
2019-05-26T06:19:36.672Z,33.22
2019-05-26T06:22:10.575Z,29.97
2019-05-26T06:24:44.423Z,28.30
2019-05-26T06:27:18.775Z,28.10
2019-05-26T06:29:59.057Z,30.23
2019-05-26T06:32:32.021Z,27.47
2019-05-26T06:35:05.626Z,27.63
2019-05-26T06:37:38.381Z,38.77
2019-05-26T06:40:14.069Z,27.40
2019-05-26T06:42:46.745Z,26.30
2019-05-26T06:45:20.829Z,27.13
2019-05-26T06:47:54.411Z,27.60
2019-05-26T06:50:27.788Z,25.43
2019-05-26T06:53:01.391Z,24.37
2019-05-26T06:55:33.899Z,24.67
2019-05-26T06:58:12.642Z,22.97
2019-05-26T07:00:46.984Z,24.93
2019-05-26T07:03:21.697Z,24.57
2019-05-26T07:05:57.935Z,22.80
2019-05-26T07:08:30.648Z,22.40
2019-05-26T07:11:05.010Z,24.10
2019-05-26T07:13:42.353Z,21.53
2019-05-26T07:16:15.588Z,21.70
2019-05-26T07:18:48.514Z,21.47
2019-05-26T07:21:23.782Z,21.33
2019-05-26T07:23:56.434Z,20.73
2019-05-26T07:26:40.282Z,21.10
2019-05-26T07:29:13.010Z,19.90
2019-05-26T07:31:47.275Z,20.50
2019-05-26T07:34:19.898Z,20.43
2019-05-26T07:36:52.586Z,18.80
2019-05-26T07:39:25.483Z,19.63
2019-05-26T07:42:09.815Z,20.73
2019-05-26T07:45:04.735Z,18.00
2019-05-26T07:47:40.332Z,19.92
2019-05-26T07:50:17.575Z,17.40
2019-05-26T07:52:51.565Z,16.77
2019-05-26T07:55:28.694Z,16.77
2019-05-26T07:58:02.443Z,16.53
2019-05-26T08:00:39.326Z,14.47
2019-05-26T08:03:19.347Z,15.13
2019-05-26T08:05:52.387Z,13.53
2019-05-26T08:08:29.988Z,13.40
2019-05-26T08:11:02.881Z,14.00
2019-05-26T08:13:36.053Z,13.43
2019-05-26T08:16:09.545Z,14.10
2019-05-26T08:19:07.842Z,13.30
2019-05-26T08:21:42.862Z,14.38
2019-05-26T08:24:16.022Z,13.63
2019-05-26T08:26:48.724Z,12.53
2019-05-26T08:29:25.939Z,12.70
2019-05-26T08:32:00.734Z,13.40
2019-05-26T08:34:35.773Z,12.13
2019-05-26T08:37:13.291Z,11.30
2019-05-26T08:39:51.600Z,10.33
2019-05-26T08:42:43.766Z,11.70
2019-05-26T08:45:21.415Z,11.30
2019-05-26T08:47:55.746Z,12.00
2019-05-26T08:50:34.258Z,10.47
2019-05-26T08:53:13.088Z,10.60
2019-05-26T08:55:46.546Z,9.87
2019-05-26T08:58:22.487Z,10.90
2019-05-26T09:00:55.659Z,10.83
2019-05-26T09:03:32.125Z,9.93
2019-05-26T09:06:05.941Z,9.07
2019-05-26T09:08:40.035Z,9.13
2019-05-26T09:11:12.807Z,8.83
2019-05-26T09:13:48.462Z,7.63
2019-05-26T09:16:21.191Z,8.53
2019-05-26T09:19:01.359Z,7.87
2019-05-26T09:21:34.533Z,8.43
2019-05-26T09:24:08.761Z,8.27
2019-05-26T09:26:43.988Z,8.80
2019-05-26T09:29:17.531Z,7.47
2019-05-26T09:31:50.103Z,6.90
2019-05-26T09:34:22.860Z,8.25
2019-05-26T09:36:57.208Z,7.33
2019-05-26T09:39:31.584Z,6.70
2019-05-26T09:42:04.411Z,7.10
2019-05-26T09:44:41.787Z,6.03
2019-05-26T09:47:14.540Z,6.28
2019-05-26T09:49:48.249Z,5.90
2019-05-26T09:52:21.148Z,5.50
2019-05-26T09:55:01.759Z,5.27
2019-05-26T09:57:36.210Z,4.37
2019-05-26T10:00:25.631Z,4.30
2019-05-26T10:02:59.290Z,3.60
2019-05-26T10:05:32.955Z,3.80
2019-05-26T10:08:05.873Z,4.10
2019-05-26T10:10:38.632Z,3.77
2019-05-26T10:13:11.891Z,3.67
2019-05-26T10:15:46.280Z,3.37
2019-05-26T10:18:20.602Z,3.60
2019-05-26T10:20:59.641Z,3.37
2019-05-26T10:23:38.825Z,3.83
2019-05-26T10:26:19.816Z,3.67
2019-05-26T10:29:24.056Z,3.40
2019-05-26T10:32:08.458Z,3.40
2019-05-26T10:34:42.709Z,3.23
2019-05-26T10:37:18.157Z,3.00
2019-05-26T10:39:51.647Z,2.77
2019-05-26T10:42:25.320Z,3.00
2019-05-26T10:45:04.229Z,2.97
2019-05-26T10:47:42.949Z,2.60
2019-05-26T10:50:18.326Z,2.50
2019-05-26T10:52:52.200Z,2.87
2019-05-26T10:55:26.175Z,3.10
2019-05-26T10:57:58.956Z,2.70
2019-05-26T11:00:33.297Z,2.60
2019-05-26T11:03:07.095Z,2.70
2019-05-26T11:05:42.508Z,2.65
2019-05-26T11:08:24.253Z,2.67
2019-05-26T11:10:59.022Z,2.80
2019-05-26T11:13:40.846Z,2.70
2019-05-26T11:16:13.942Z,2.73
2019-05-26T11:18:47.401Z,2.23
2019-05-26T11:21:20.258Z,2.43
2019-05-26T11:23:53.809Z,2.50
2019-05-26T11:26:29.411Z,2.80
2019-05-26T11:29:04.301Z,2.33
2019-05-26T11:31:39.810Z,2.40
2019-05-26T11:34:15.480Z,2.60
2019-05-26T11:36:52.971Z,2.47
2019-05-26T11:39:41.456Z,2.80
2019-05-26T11:42:18.168Z,2.53
2019-05-26T11:44:54.099Z,2.53
2019-05-26T11:47:29.340Z,2.10
2019-05-26T11:50:06.493Z,2.20
2019-05-26T11:52:42.299Z,2.03
2019-05-26T11:55:20.379Z,2.37
2019-05-26T11:57:54.401Z,2.50
2019-05-26T12:00:27.742Z,2.37
2019-05-26T12:03:05.854Z,2.20
2019-05-26T12:05:43.142Z,2.23
2019-05-26T12:08:15.968Z,2.55
2019-05-26T12:10:49.947Z,2.80
2019-05-26T12:13:26.334Z,2.60
2019-05-26T12:16:01.354Z,2.63
2019-05-26T12:18:34.956Z,2.77
2019-05-26T12:21:08.459Z,2.67
2019-05-26T12:23:54.725Z,2.30
2019-05-26T12:26:28.516Z,2.90
2019-05-26T12:29:01.508Z,3.30
2019-05-26T12:31:34.595Z,2.80
2019-05-26T12:34:07.638Z,3.07
2019-05-26T12:36:40.942Z,3.37
2019-05-26T12:39:13.598Z,2.70
2019-05-26T12:41:46.476Z,2.80
2019-05-26T12:44:20.233Z,2.67
2019-05-26T12:46:53.443Z,2.70
2019-05-26T12:49:28.025Z,3.00
2019-05-26T12:52:02.120Z,3.33
2019-05-26T12:54:37.078Z,3.10
2019-05-26T12:57:10.201Z,3.40
2019-05-26T12:59:45.087Z,2.70
2019-05-26T13:02:19.204Z,3.40
2019-05-26T13:04:54.506Z,3.30
2019-05-26T13:07:27.841Z,3.50
2019-05-26T13:10:26.278Z,3.50
2019-05-26T13:13:01.241Z,3.53
2019-05-26T13:15:37.346Z,9.73
2019-05-26T13:18:38.194Z,3.67
2019-05-26T13:21:20.462Z,3.63
2019-05-26T13:23:56.080Z,3.70
2019-05-26T13:26:31.393Z,3.72
2019-05-26T13:29:06.825Z,3.50
2019-05-26T13:31:39.693Z,3.60
2019-05-26T13:34:15.568Z,3.30
2019-05-26T13:36:52.127Z,3.70
2019-05-26T13:39:37.796Z,3.33
2019-05-26T13:42:23.229Z,3.30
2019-05-26T13:45:21.678Z,3.60
2019-05-26T13:47:57.312Z,3.20
2019-05-26T13:50:30.939Z,3.10
2019-05-26T13:53:06.779Z,3.30
2019-05-26T13:55:53.230Z,3.60
2019-05-26T13:58:27.257Z,3.93
2019-05-26T14:01:00.637Z,3.47
2019-05-26T14:03:35.525Z,3.57
2019-05-26T14:06:11.964Z,3.53
2019-05-26T14:08:48.277Z,3.70
2019-05-26T14:11:23.849Z,4.07
2019-05-26T14:14:04.122Z,3.67
2019-05-26T14:17:03.238Z,3.37
2019-05-26T14:19:40.889Z,3.40
2019-05-26T14:22:25.362Z,3.50
2019-05-26T14:24:58.375Z,3.43
2019-05-26T14:27:38.327Z,3.63
2019-05-26T14:30:14.899Z,3.77
2019-05-26T14:32:49.961Z,3.70
2019-05-26T14:35:23.731Z,3.60
2019-05-26T14:37:56.779Z,3.47
2019-05-26T14:40:31.390Z,3.40
2019-05-26T14:43:07.617Z,3.37
2019-05-26T14:45:52.829Z,3.30
2019-05-26T14:48:28.259Z,3.40
2019-05-26T14:51:02.674Z,3.50
2019-05-26T14:53:39.696Z,3.33
2019-05-26T14:56:15.959Z,3.37
2019-05-26T14:58:52.009Z,3.53
2019-05-26T15:01:25.621Z,2.93
2019-05-26T15:03:59.113Z,3.33
2019-05-26T15:06:34.804Z,3.27
2019-05-26T15:09:24.834Z,3.60
2019-05-26T15:12:02.923Z,3.40
2019-05-26T15:14:35.522Z,3.50
2019-05-26T15:17:08.847Z,3.50
2019-05-26T15:19:42.183Z,2.90
2019-05-26T15:22:16.648Z,3.40
2019-05-26T15:24:49.417Z,3.70
2019-05-26T15:27:24.491Z,3.33
2019-05-26T15:29:58.628Z,3.40
2019-05-26T15:32:32.666Z,3.27
2019-05-26T15:35:08.161Z,3.58
2019-05-26T15:37:41.091Z,4.17
2019-05-26T15:40:34.415Z,3.97
2019-05-26T15:43:08.807Z,3.90
2019-05-26T15:45:45.948Z,3.87
2019-05-26T15:48:19.536Z,3.40
2019-05-26T15:50:52.600Z,4.35
2019-05-26T15:53:30.335Z,4.23
2019-05-26T15:56:04.281Z,3.83
2019-05-26T15:58:50.632Z,3.40
2019-05-26T16:01:25.190Z,3.80
2019-05-26T16:04:01.362Z,3.60
2019-05-26T16:06:34.078Z,3.17
2019-05-26T16:09:08.683Z,3.43
2019-05-26T16:11:43.607Z,3.47
2019-05-26T16:14:21.392Z,3.60
2019-05-26T16:16:56.441Z,3.63
2019-05-26T16:19:31.943Z,3.40
2019-05-26T16:22:09.763Z,3.93
2019-05-26T16:24:48.907Z,3.17
2019-05-26T16:27:27.246Z,3.73
2019-05-26T16:30:07.474Z,3.43
2019-05-26T16:32:50.605Z,3.33
2019-05-26T16:35:29.510Z,3.62
2019-05-26T16:38:07.827Z,3.90
2019-05-26T16:40:48.755Z,3.57
2019-05-26T16:43:22.368Z,3.50
2019-05-26T16:45:58.152Z,3.37
2019-05-26T16:48:32.063Z,3.73
2019-05-26T16:51:07.660Z,3.67
2019-05-26T16:53:42.998Z,3.73
2019-05-26T16:56:20.786Z,2.97
2019-05-26T16:58:54.625Z,2.87
2019-05-26T17:01:29.390Z,3.20
2019-05-26T17:04:04.845Z,3.30
2019-05-26T17:06:39.670Z,2.97
2019-05-26T17:09:31.627Z,3.13
2019-05-26T17:12:07.782Z,3.17
2019-05-26T17:14:42.714Z,3.17
2019-05-26T17:17:18.259Z,3.10
2019-05-26T17:20:00.596Z,3.10
2019-05-26T17:22:35.734Z,3.67
2019-05-26T17:25:10.676Z,3.17
2019-05-26T17:27:44.510Z,3.72
2019-05-26T17:30:22.076Z,3.20
2019-05-26T17:32:57.076Z,3.70
2019-05-26T17:35:37.583Z,3.10
2019-05-26T17:38:11.112Z,3.70
2019-05-26T17:40:46.828Z,3.30
2019-05-26T17:43:21.434Z,3.30
2019-05-26T17:45:56.564Z,3.57
2019-05-26T17:48:34.974Z,3.30
2019-05-26T17:51:17.518Z,3.77
2019-05-26T17:53:54.086Z,3.47
2019-05-26T17:56:40.119Z,3.43
2019-05-26T17:59:16.513Z,3.70
2019-05-26T18:01:57.525Z,3.70
2019-05-26T18:04:42.350Z,3.60
2019-05-26T18:07:17.550Z,3.50
2019-05-26T18:09:55.366Z,3.33
2019-05-26T18:12:38.755Z,3.63
2019-05-26T18:15:21.261Z,3.57
2019-05-26T18:17:59.041Z,3.90
2019-05-26T18:20:34.416Z,3.78
2019-05-26T18:23:11.527Z,3.30
2019-05-26T18:25:46.269Z,3.90
2019-05-26T18:28:20.650Z,3.57
2019-05-26T18:30:56.151Z,3.60
2019-05-26T18:33:31.813Z,3.50
2019-05-26T18:36:04.457Z,3.20
2019-05-26T18:38:41.393Z,3.73
2019-05-26T18:41:22.565Z,4.27
2019-05-26T18:43:57.265Z,3.67
2019-05-26T18:46:30.003Z,4.10
2019-05-26T18:49:12.357Z,3.67
2019-05-26T18:51:48.770Z,3.07
2019-05-26T18:54:24.716Z,4.37
2019-05-26T18:56:59.958Z,3.90
2019-05-26T18:59:36.032Z,4.12
2019-05-26T19:02:11.131Z,4.10
2019-05-26T19:04:45.431Z,3.57
2019-05-26T19:07:18.733Z,3.63
2019-05-26T19:10:04.710Z,4.40
2019-05-26T19:12:47.150Z,4.00
2019-05-26T19:15:28.350Z,4.20
2019-05-26T19:18:16.758Z,4.50
2019-05-26T19:20:56.781Z,3.70
2019-05-26T19:23:34.491Z,4.20
2019-05-26T19:26:08.204Z,4.15
2019-05-26T19:28:41.648Z,4.30
2019-05-26T19:31:14.480Z,4.40
2019-05-26T19:33:47.042Z,4.50
2019-05-26T19:36:19.881Z,4.43
2019-05-26T19:38:54.242Z,4.63
2019-05-26T19:41:33.003Z,4.70
2019-05-26T19:44:06.338Z,4.60
2019-05-26T19:46:41.077Z,4.33
2019-05-26T19:49:17.921Z,4.83
2019-05-26T19:51:56.030Z,4.50
2019-05-26T19:54:37.105Z,4.50
2019-05-26T19:57:16.270Z,4.20
2019-05-26T20:00:10.554Z,4.50
2019-05-26T20:02:47.951Z,5.00
2019-05-26T20:05:22.170Z,4.00
2019-05-26T20:07:57.148Z,4.23
2019-05-26T20:10:34.219Z,4.40
2019-05-26T20:13:11.222Z,4.47
2019-05-26T20:15:46.007Z,4.47
2019-05-26T20:18:18.831Z,4.60
2019-05-26T20:20:52.605Z,4.60
2019-05-26T20:23:26.917Z,4.50
2019-05-26T20:25:59.619Z,4.87
2019-05-26T20:28:34.823Z,3.83
2019-05-26T20:31:10.207Z,4.23
2019-05-26T20:33:43.742Z,4.70
2019-05-26T20:36:43.932Z,4.60
2019-05-26T20:39:19.219Z,4.10
2019-05-26T20:41:55.334Z,4.23
2019-05-26T20:44:30.767Z,4.33
2019-05-26T20:47:05.744Z,4.50
2019-05-26T20:49:45.733Z,4.23
2019-05-26T20:52:20.152Z,4.60
2019-05-26T20:54:54.215Z,4.20
2019-05-26T20:57:26.877Z,4.30
2019-05-26T21:00:01.571Z,4.30
2019-05-26T21:02:37.866Z,4.57
2019-05-26T21:05:11.392Z,4.23
2019-05-26T21:07:45.497Z,4.87
2019-05-26T21:10:18.509Z,4.80
2019-05-26T21:12:52.623Z,4.80
2019-05-26T21:15:25.777Z,6.20
2019-05-26T21:18:02.072Z,6.10
2019-05-26T21:20:35.243Z,6.57
2019-05-26T21:23:08.806Z,6.27
2019-05-26T21:25:43.319Z,5.90
2019-05-26T21:28:18.723Z,6.70
2019-05-26T21:30:51.396Z,5.60
2019-05-26T21:33:24.009Z,6.07
2019-05-26T21:35:57.190Z,6.60
2019-05-26T21:38:30.650Z,6.37
2019-05-26T21:41:04.345Z,6.57
2019-05-26T21:43:37.570Z,6.87
2019-05-26T21:46:12.039Z,6.90
2019-05-26T21:48:45.533Z,6.20
2019-05-26T21:51:19.222Z,6.50
2019-05-26T21:53:52.264Z,6.13
2019-05-26T21:56:27.226Z,6.60
2019-05-26T21:59:00.894Z,6.23
2019-05-26T22:01:33.717Z,6.00
2019-05-26T22:04:08.578Z,6.40
2019-05-26T22:06:42.635Z,7.27
2019-05-26T22:09:17.180Z,6.30
2019-05-26T22:11:50.447Z,6.67
2019-05-26T22:14:27.210Z,6.97
2019-05-26T22:17:00.225Z,6.57
2019-05-26T22:19:32.789Z,6.73
2019-05-26T22:22:05.685Z,6.00
2019-05-26T22:24:38.374Z,6.27
2019-05-26T22:27:11.050Z,5.70
2019-05-26T22:29:44.347Z,5.73
2019-05-26T22:32:16.965Z,5.50
2019-05-26T22:34:50.402Z,5.77
2019-05-26T22:37:22.934Z,5.80
2019-05-26T22:39:55.463Z,5.87
2019-05-26T22:42:31.311Z,6.30
2019-05-26T22:45:08.944Z,6.07
2019-05-26T22:47:43.018Z,6.23
2019-05-26T22:50:18.374Z,5.43
2019-05-26T22:52:51.740Z,5.97
2019-05-26T22:55:24.405Z,5.93
2019-05-26T22:57:57.057Z,5.43
2019-05-26T23:00:29.959Z,6.20
2019-05-26T23:03:03.343Z,5.80
2019-05-26T23:05:37.698Z,5.57
2019-05-26T23:08:10.270Z,6.20
2019-05-26T23:10:43.438Z,5.57
2019-05-26T23:13:16.013Z,5.77
2019-05-26T23:15:49.654Z,5.27
2019-05-26T23:18:22.229Z,5.80
2019-05-26T23:20:55.865Z,6.03
2019-05-26T23:23:28.476Z,5.77
2019-05-26T23:26:01.224Z,5.87
2019-05-26T23:28:34.818Z,5.47
2019-05-26T23:31:11.367Z,5.70
2019-05-26T23:33:46.054Z,5.73
2019-05-26T23:36:19.707Z,5.30
2019-05-26T23:38:54.298Z,5.50
2019-05-26T23:41:26.999Z,6.10
2019-05-26T23:43:59.700Z,6.10
2019-05-26T23:46:33.141Z,6.30
2019-05-26T23:49:05.744Z,6.00
2019-05-26T23:51:38.384Z,6.40
2019-05-26T23:54:11.054Z,6.47
2019-05-26T23:56:43.746Z,5.87
2019-05-26T23:59:16.326Z,7.17
